createdAt,value
2022-11-13T00:01:55.266Z,3.60
2022-11-13T00:04:21.028Z,3.58
2022-11-13T00:06:46.861Z,3.52
2022-11-13T00:09:12.570Z,3.51
2022-11-13T00:11:38.351Z,3.51
2022-11-13T00:14:04.235Z,3.51
2022-11-13T00:16:29.939Z,3.51
2022-11-13T00:18:55.685Z,3.50
2022-11-13T00:21:23.894Z,3.49
2022-11-13T00:23:51.112Z,3.41
2022-11-13T00:26:19.428Z,3.36
2022-11-13T00:28:46.231Z,3.35
2022-11-13T00:31:14.317Z,3.30
2022-11-13T00:36:27.458Z,3.26
2022-11-13T00:38:54.418Z,3.25
2022-11-13T00:41:20.745Z,3.21
2022-11-13T00:43:46.425Z,3.23
2022-11-13T00:46:12.443Z,3.25
2022-11-13T00:48:38.179Z,3.25
2022-11-13T00:51:04.015Z,3.22
2022-11-13T00:53:29.741Z,3.14
2022-11-13T00:55:55.705Z,3.07
2022-11-13T00:58:21.421Z,2.96
2022-11-13T01:00:48.326Z,2.93
2022-11-13T01:03:16.062Z,2.86
2022-11-13T01:05:42.682Z,2.72
2022-11-13T01:08:08.890Z,2.66
2022-11-13T01:10:38.973Z,2.64
2022-11-13T01:13:04.671Z,2.61
2022-11-13T01:15:30.547Z,2.61
2022-11-13T01:17:56.236Z,2.62
2022-11-13T01:20:23.115Z,2.63
2022-11-13T01:22:48.952Z,2.63
2022-11-13T01:25:14.978Z,2.56
2022-11-13T01:27:40.789Z,2.56
2022-11-13T01:30:07.213Z,2.57
2022-11-13T01:32:33.463Z,2.57
2022-11-13T01:34:59.207Z,2.54
2022-11-13T01:37:24.954Z,2.53
2022-11-13T01:39:50.719Z,2.55
2022-11-13T01:42:16.534Z,2.56
2022-11-13T01:44:58.145Z,2.58
2022-11-13T01:47:24.904Z,2.58
2022-11-13T01:49:54.341Z,2.58
2022-11-13T01:52:30.732Z,2.60
2022-11-13T01:55:01.800Z,2.60
2022-11-13T01:57:27.971Z,2.60
2022-11-13T01:59:59.809Z,2.58
2022-11-13T02:02:25.744Z,2.58
2022-11-13T02:04:51.930Z,2.58
2022-11-13T02:07:20.797Z,2.58
2022-11-13T02:09:54.073Z,2.54
2022-11-13T02:12:34.466Z,2.58
2022-11-13T02:15:03.117Z,2.57
2022-11-13T02:17:46.340Z,2.58
2022-11-13T02:20:13.384Z,2.58
2022-11-13T02:22:56.322Z,2.59
2022-11-13T02:25:24.643Z,2.56
2022-11-13T02:27:50.845Z,2.49
2022-11-13T02:30:27.159Z,2.37
2022-11-13T02:32:55.495Z,2.36
2022-11-13T02:35:26.532Z,2.38
2022-11-13T02:37:54.140Z,2.40
2022-11-13T02:40:19.968Z,2.47
2022-11-13T02:42:45.749Z,2.47
2022-11-13T02:45:11.415Z,2.42
2022-11-13T02:47:37.415Z,2.45
2022-11-13T02:50:04.346Z,2.50
2022-11-13T02:52:30.624Z,2.56
2022-11-13T02:54:56.339Z,2.56
2022-11-13T02:57:22.270Z,2.56
2022-11-13T02:59:47.992Z,2.57
2022-11-13T03:02:14.061Z,2.61
2022-11-13T03:05:10.348Z,2.64
2022-11-13T03:07:25.731Z,2.61
2022-11-13T03:09:51.414Z,2.62
2022-11-13T03:12:17.214Z,2.64
2022-11-13T03:14:42.989Z,2.64
2022-11-13T03:17:08.672Z,2.64
2022-11-13T03:19:34.445Z,2.57
2022-11-13T03:22:00.136Z,2.52
2022-11-13T03:24:25.824Z,2.43
2022-11-13T03:26:51.541Z,2.29
2022-11-13T03:29:17.216Z,2.20
2022-11-13T03:31:42.887Z,2.19
2022-11-13T03:34:08.901Z,2.21
2022-11-13T03:36:34.572Z,2.23
2022-11-13T03:39:00.291Z,2.20
2022-11-13T03:41:26.020Z,2.14
2022-11-13T03:43:51.788Z,2.11
2022-11-13T03:46:17.461Z,2.07
2022-11-13T03:48:43.202Z,2.07
2022-11-13T03:51:09.252Z,2.08
2022-11-13T03:53:34.933Z,2.11
2022-11-13T03:56:00.884Z,2.11
2022-11-13T03:58:26.911Z,2.12
2022-11-13T04:00:54.905Z,2.14
2022-11-13T04:03:20.795Z,2.14
2022-11-13T04:05:48.253Z,2.12
2022-11-13T04:08:14.319Z,2.12
2022-11-13T04:10:40.424Z,2.09
2022-11-13T04:13:06.424Z,2.05
2022-11-13T04:15:32.341Z,1.96
2022-11-13T04:17:58.071Z,1.90
2022-11-13T04:20:24.376Z,1.87
2022-11-13T04:22:50.369Z,1.87
2022-11-13T04:25:16.232Z,1.88
2022-11-13T04:27:41.917Z,1.88
2022-11-13T04:30:08.697Z,1.85
2022-11-13T04:32:34.501Z,1.78
2022-11-13T04:35:00.235Z,1.71
2022-11-13T04:37:25.941Z,1.63
2022-11-13T04:39:51.715Z,1.55
2022-11-13T04:42:36.055Z,1.50
2022-11-13T04:45:01.900Z,1.47
2022-11-13T04:47:27.640Z,1.46
2022-11-13T04:49:53.425Z,1.46
2022-11-13T04:52:19.225Z,1.43
2022-11-13T04:54:45.192Z,1.36
2022-11-13T04:57:10.886Z,1.36
2022-11-13T04:59:36.638Z,1.29
2022-11-13T05:02:03.170Z,1.12
2022-11-13T05:04:28.919Z,1.00
2022-11-13T05:06:54.750Z,0.85
2022-11-13T05:09:20.491Z,0.76
2022-11-13T05:11:46.204Z,0.67
2022-11-13T05:14:12.609Z,0.68
2022-11-13T05:16:38.548Z,0.72
2022-11-13T05:19:06.165Z,0.81
2022-11-13T05:21:36.751Z,0.89
2022-11-13T05:24:03.826Z,0.96
2022-11-13T05:26:29.950Z,0.96
2022-11-13T05:28:59.580Z,0.98
2022-11-13T05:31:26.294Z,0.85
2022-11-13T05:33:53.072Z,0.71
2022-11-13T05:36:20.296Z,0.65
2022-11-13T05:38:46.036Z,0.63
2022-11-13T05:41:17.490Z,0.61
2022-11-13T05:43:43.252Z,0.56
2022-11-13T05:46:20.761Z,0.54
2022-11-13T05:48:47.470Z,0.56
2022-11-13T05:51:22.511Z,0.56
2022-11-13T05:53:48.195Z,0.64
2022-11-13T05:56:26.071Z,0.69
2022-11-13T05:58:53.209Z,0.77
2022-11-13T06:01:22.745Z,0.81
2022-11-13T06:03:49.248Z,0.81
2022-11-13T06:06:17.671Z,0.75
2022-11-13T06:08:43.921Z,0.78
2022-11-13T06:11:12.558Z,0.86
2022-11-13T06:13:39.014Z,0.85
2022-11-13T06:16:10.853Z,0.86
2022-11-13T06:18:38.094Z,0.85
2022-11-13T06:21:17.919Z,0.90
2022-11-13T06:23:44.108Z,0.91
2022-11-13T06:26:13.584Z,0.91
2022-11-13T06:28:39.803Z,0.93
2022-11-13T06:31:14.071Z,0.93
2022-11-13T06:33:41.231Z,0.93
2022-11-13T06:36:12.604Z,0.81
2022-11-13T06:38:39.775Z,0.76
2022-11-13T06:41:06.997Z,0.72
2022-11-13T06:43:32.988Z,0.77
2022-11-13T06:46:02.344Z,0.87
2022-11-13T06:48:28.350Z,0.94
2022-11-13T06:50:54.185Z,1.02
2022-11-13T06:53:20.062Z,1.11
2022-11-13T06:55:50.102Z,1.22
2022-11-13T06:58:16.658Z,1.30
2022-11-13T07:00:43.134Z,1.29
2022-11-13T07:03:25.496Z,1.26
2022-11-13T07:05:51.617Z,1.21
2022-11-13T07:08:17.860Z,1.21
2022-11-13T07:10:52.076Z,1.16
2022-11-13T07:13:17.777Z,0.99
2022-11-13T07:15:43.448Z,0.89
2022-11-13T07:18:09.230Z,0.92
2022-11-13T07:20:34.930Z,0.99
2022-11-13T07:23:02.088Z,1.09
2022-11-13T07:25:29.360Z,1.19
2022-11-13T07:27:55.103Z,1.26
2022-11-13T07:30:21.647Z,1.35
2022-11-13T07:32:47.451Z,1.46
2022-11-13T07:35:13.261Z,1.55
2022-11-13T07:37:38.999Z,1.65
2022-11-13T07:40:05.601Z,1.75
2022-11-13T07:42:31.618Z,1.85
2022-11-13T07:44:57.488Z,1.98
2022-11-13T07:47:23.792Z,2.11
2022-11-13T07:49:49.571Z,2.14
2022-11-13T07:52:15.302Z,2.01
2022-11-13T07:54:41.173Z,1.99
2022-11-13T07:57:06.897Z,2.02
2022-11-13T07:59:32.584Z,2.10
2022-11-13T08:01:58.426Z,2.23
2022-11-13T08:04:24.130Z,2.33
2022-11-13T08:06:49.972Z,2.46
2022-11-13T08:09:15.742Z,2.56
2022-11-13T08:11:41.428Z,2.61
2022-11-13T08:14:07.438Z,2.68
2022-11-13T08:16:33.146Z,2.78
2022-11-13T08:18:58.887Z,2.85
2022-11-13T08:21:24.585Z,2.87
2022-11-13T08:23:50.291Z,2.96
2022-11-13T08:26:17.745Z,2.84
2022-11-13T08:28:43.992Z,2.76
2022-11-13T08:31:12.204Z,2.67
2022-11-13T08:33:38.610Z,2.48
2022-11-13T08:36:04.756Z,2.33
2022-11-13T08:38:30.939Z,2.48
2022-11-13T08:41:08.692Z,2.39
2022-11-13T08:43:35.341Z,2.37
2022-11-13T08:46:01.660Z,2.41
2022-11-13T08:48:27.772Z,2.50
2022-11-13T08:50:55.347Z,2.60
2022-11-13T08:53:21.501Z,2.66
2022-11-13T08:55:47.529Z,2.71
2022-11-13T08:58:13.404Z,2.88
2022-11-13T09:00:39.283Z,3.05
2022-11-13T09:03:05.449Z,3.22
2022-11-13T09:05:31.242Z,3.38
2022-11-13T09:07:58.717Z,3.55
2022-11-13T09:10:25.308Z,3.62
2022-11-13T09:13:03.762Z,3.78
2022-11-13T09:15:31.093Z,3.89
2022-11-13T09:17:57.884Z,4.00
2022-11-13T09:20:23.795Z,4.05
2022-11-13T09:22:59.211Z,4.10
2022-11-13T09:25:25.735Z,4.23
2022-11-13T09:27:57.871Z,4.35
2022-11-13T09:30:24.431Z,4.47
2022-11-13T09:32:55.285Z,4.55
2022-11-13T09:35:33.276Z,4.65
2022-11-13T09:38:11.428Z,4.76
2022-11-13T09:40:47.916Z,4.86
2022-11-13T09:43:47.257Z,4.92
2022-11-13T09:46:28.149Z,4.97
2022-11-13T09:49:00.531Z,4.99
2022-11-13T09:51:32.246Z,5.11
2022-11-13T09:54:02.030Z,5.22
2022-11-13T09:56:33.059Z,5.37
2022-11-13T09:59:10.879Z,5.55
2022-11-13T10:02:00.859Z,5.71
2022-11-13T10:04:45.504Z,5.90
2022-11-13T10:07:35.268Z,6.06
2022-11-13T10:10:33.309Z,6.27
2022-11-13T10:13:00.217Z,6.42
2022-11-13T10:15:26.328Z,6.56
2022-11-13T10:17:58.621Z,6.68
2022-11-13T10:20:43.833Z,6.85
2022-11-13T10:23:29.045Z,7.00
2022-11-13T10:25:58.597Z,7.17
2022-11-13T10:31:12.807Z,7.47
2022-11-13T10:33:38.681Z,7.63
2022-11-13T10:36:31.512Z,7.79
2022-11-13T10:39:07.460Z,7.95
2022-11-13T10:41:33.167Z,8.09
2022-11-13T10:44:28.701Z,8.23
2022-11-13T10:47:19.837Z,8.37
2022-11-13T10:49:56.942Z,8.55
2022-11-13T10:52:28.186Z,8.73
2022-11-13T10:55:21.876Z,8.89
2022-11-13T10:57:56.854Z,9.07
2022-11-13T11:00:22.941Z,9.19
2022-11-13T11:02:49.813Z,9.30
2022-11-13T11:05:18.611Z,9.40
2022-11-13T11:07:45.419Z,9.53
2022-11-13T11:10:22.316Z,9.65
2022-11-13T11:12:53.631Z,9.72
2022-11-13T11:15:56.459Z,9.86
2022-11-13T11:18:38.991Z,9.94
2022-11-13T11:21:09.409Z,10.04
2022-11-13T11:23:58.128Z,10.14
2022-11-13T11:26:31.527Z,10.23
2022-11-13T11:29:07.701Z,10.36
2022-11-13T11:32:05.660Z,10.42
2022-11-13T11:34:34.724Z,10.46
2022-11-13T11:37:13.817Z,10.55
2022-11-13T11:39:51.600Z,10.64
2022-11-13T11:42:33.799Z,10.71
2022-11-13T11:45:33.339Z,10.75
2022-11-13T11:48:01.138Z,10.74
2022-11-13T11:51:00.930Z,10.77
2022-11-13T11:53:45.469Z,10.88
2022-11-13T11:56:20.305Z,10.98
2022-11-13T11:59:00.161Z,11.11
2022-11-13T12:01:47.687Z,11.28
2022-11-13T12:04:33.293Z,11.42
2022-11-13T12:07:02.118Z,11.53
2022-11-13T12:09:30.818Z,11.63
2022-11-13T12:12:06.982Z,11.71
2022-11-13T12:15:00.803Z,11.80
2022-11-13T12:18:02.150Z,11.89
2022-11-13T12:20:43.143Z,11.94
2022-11-13T12:23:31.939Z,12.06
2022-11-13T12:26:30.139Z,12.12
2022-11-13T12:28:55.995Z,12.21
2022-11-13T12:32:07.095Z,12.27
2022-11-13T12:34:44.031Z,12.35
2022-11-13T12:37:15.654Z,12.46
2022-11-13T12:39:55.377Z,12.54
2022-11-13T12:42:34.003Z,12.68
2022-11-13T12:45:11.500Z,12.78
2022-11-13T12:47:37.601Z,12.89
2022-11-13T12:50:26.195Z,12.93
2022-11-13T12:53:02.197Z,12.96
2022-11-13T12:55:36.587Z,13.00
2022-11-13T12:58:17.908Z,13.03
2022-11-13T13:00:55.519Z,13.04
2022-11-13T13:03:56.332Z,13.03
2022-11-13T13:06:37.279Z,13.06
2022-11-13T13:09:23.314Z,13.10
2022-11-13T13:12:19.034Z,13.12
2022-11-13T13:15:28.340Z,13.19
2022-11-13T13:18:09.935Z,13.27
2022-11-13T13:20:45.206Z,13.32
2022-11-13T13:23:12.862Z,13.40
2022-11-13T13:25:39.350Z,13.43
2022-11-13T13:28:08.107Z,13.46
2022-11-13T13:30:53.612Z,13.51
2022-11-13T13:33:47.056Z,13.55
2022-11-13T13:36:49.931Z,13.58
2022-11-13T13:39:30.960Z,13.61
2022-11-13T13:42:03.411Z,13.64
2022-11-13T13:44:48.832Z,13.64
2022-11-13T13:47:23.940Z,13.67
2022-11-13T13:49:51.363Z,13.66
2022-11-13T13:52:23.238Z,13.63
2022-11-13T13:54:49.285Z,13.67
2022-11-13T13:57:16.047Z,13.64
2022-11-13T13:59:45.957Z,13.60
2022-11-13T14:02:17.442Z,13.58
2022-11-13T14:04:46.136Z,13.56
2022-11-13T14:07:44.881Z,13.49
2022-11-13T14:10:17.613Z,13.47
2022-11-13T14:12:44.604Z,13.45
2022-11-13T14:15:21.240Z,13.42
2022-11-13T14:17:46.943Z,13.40
2022-11-13T14:20:12.989Z,13.37
2022-11-13T14:22:41.645Z,13.32
2022-11-13T14:25:23.238Z,13.30
2022-11-13T14:27:49.684Z,13.25
2022-11-13T14:30:27.436Z,13.20
2022-11-13T14:32:54.062Z,13.18
2022-11-13T14:35:22.776Z,13.11
2022-11-13T14:37:50.495Z,13.04
2022-11-13T14:40:23.777Z,12.98
2022-11-13T14:42:59.188Z,12.89
2022-11-13T14:45:27.985Z,12.83
2022-11-13T14:47:58.326Z,12.79
2022-11-13T14:50:25.894Z,12.76
2022-11-13T14:52:56.556Z,12.68
2022-11-13T14:55:26.508Z,12.60
2022-11-13T14:57:52.253Z,12.53
2022-11-13T15:00:26.588Z,12.41
2022-11-13T15:02:52.315Z,12.35
2022-11-13T15:05:18.016Z,12.26
2022-11-13T15:07:45.069Z,12.14
2022-11-13T15:10:18.189Z,12.09
2022-11-13T15:12:43.893Z,12.03
2022-11-13T15:15:18.698Z,11.96
2022-11-13T15:17:47.206Z,11.84
2022-11-13T15:20:21.834Z,11.74
2022-11-13T15:22:49.969Z,11.56
2022-11-13T15:25:17.527Z,11.50
2022-11-13T15:27:43.653Z,11.40
2022-11-13T15:30:10.301Z,11.30
2022-11-13T15:32:36.009Z,11.19
2022-11-13T15:35:02.080Z,11.07
2022-11-13T15:37:27.999Z,10.97
2022-11-13T15:39:53.746Z,10.85
2022-11-13T15:42:27.795Z,10.73
2022-11-13T15:44:53.935Z,10.67
2022-11-13T15:47:29.688Z,10.55
2022-11-13T15:50:12.938Z,10.47
2022-11-13T15:52:41.975Z,10.37
2022-11-13T15:55:18.932Z,10.28
2022-11-13T15:57:44.931Z,10.20
2022-11-13T16:00:20.752Z,10.09
2022-11-13T16:02:49.786Z,10.01
2022-11-13T16:05:16.019Z,9.95
2022-11-13T16:07:42.514Z,9.87
2022-11-13T16:10:09.610Z,9.83
2022-11-13T16:12:35.331Z,9.80
2022-11-13T16:15:01.121Z,9.71
2022-11-13T16:17:26.996Z,9.62
2022-11-13T16:19:54.903Z,9.53
2022-11-13T16:22:24.658Z,9.41
2022-11-13T16:24:50.629Z,9.31
2022-11-13T16:27:28.441Z,9.15
2022-11-13T16:29:54.164Z,9.08
2022-11-13T16:32:20.430Z,8.97
2022-11-13T16:34:46.122Z,8.86
2022-11-13T16:37:20.734Z,8.73
2022-11-13T16:39:46.824Z,8.66
2022-11-13T16:42:13.824Z,8.57
2022-11-13T16:44:40.692Z,8.47
2022-11-13T16:47:19.088Z,8.36
2022-11-13T16:49:45.050Z,8.24
2022-11-13T16:52:10.791Z,8.15
2022-11-13T16:54:36.468Z,8.05
2022-11-13T16:57:02.301Z,7.94
2022-11-13T16:59:27.982Z,7.86
2022-11-13T17:01:54.454Z,7.81
2022-11-13T17:04:20.772Z,7.74
2022-11-13T17:06:46.481Z,7.70
2022-11-13T17:09:12.524Z,7.61
2022-11-13T17:11:38.250Z,7.55
2022-11-13T17:14:04.757Z,7.47
2022-11-13T17:16:31.155Z,7.37
2022-11-13T17:18:58.221Z,7.31
2022-11-13T17:21:26.596Z,7.24
2022-11-13T17:24:00.620Z,7.15
2022-11-13T17:26:27.945Z,7.07
2022-11-13T17:28:54.099Z,7.02
2022-11-13T17:31:20.410Z,6.96
2022-11-13T17:33:46.185Z,6.91
2022-11-13T17:36:12.197Z,6.84
2022-11-13T17:38:38.347Z,6.76
2022-11-13T17:41:09.281Z,6.67
2022-11-13T17:43:36.187Z,6.61
2022-11-13T17:46:03.069Z,6.52
2022-11-13T17:48:32.697Z,6.45
2022-11-13T17:51:00.455Z,6.43
2022-11-13T17:53:26.760Z,6.39
2022-11-13T17:55:57.853Z,6.32
2022-11-13T17:58:24.287Z,6.27
2022-11-13T18:00:51.328Z,6.21
2022-11-13T18:03:17.780Z,6.18
2022-11-13T18:05:43.863Z,6.14
2022-11-13T18:08:13.317Z,6.07
2022-11-13T18:10:40.636Z,6.01
2022-11-13T18:13:07.342Z,5.98
2022-11-13T18:15:38.277Z,5.93
2022-11-13T18:18:05.586Z,5.88
2022-11-13T18:20:32.136Z,5.80
2022-11-13T18:22:58.189Z,5.75
2022-11-13T18:25:24.504Z,5.70
2022-11-13T18:27:50.207Z,5.64
2022-11-13T18:30:17.145Z,5.57
2022-11-13T18:32:42.827Z,5.50
2022-11-13T18:35:08.746Z,5.45
2022-11-13T18:37:34.512Z,5.38
2022-11-13T18:40:01.052Z,5.34
2022-11-13T18:42:27.779Z,5.30
2022-11-13T18:44:53.869Z,5.28
2022-11-13T18:47:19.942Z,5.25
2022-11-13T18:49:46.074Z,5.23
2022-11-13T18:52:12.099Z,5.19
2022-11-13T18:54:37.782Z,5.18
2022-11-13T18:57:03.740Z,5.13
2022-11-13T18:59:30.179Z,5.09
2022-11-13T19:01:56.730Z,5.06
2022-11-13T19:04:23.838Z,5.01
2022-11-13T19:06:50.559Z,4.95
2022-11-13T19:09:16.631Z,4.88
2022-11-13T19:11:43.418Z,4.83
2022-11-13T19:14:12.255Z,4.82
2022-11-13T19:16:39.027Z,4.78
2022-11-13T19:19:11.709Z,4.76
2022-11-13T19:21:37.411Z,4.72
2022-11-13T19:24:03.446Z,4.69
2022-11-13T19:26:29.621Z,4.66
2022-11-13T19:28:55.389Z,4.61
2022-11-13T19:31:23.156Z,4.60
2022-11-13T19:34:03.609Z,4.56
2022-11-13T19:36:31.539Z,4.50
2022-11-13T19:38:57.963Z,4.46
2022-11-13T19:41:24.787Z,4.42
2022-11-13T19:43:50.611Z,4.36
2022-11-13T19:46:18.027Z,4.30
2022-11-13T19:48:45.682Z,4.22
2022-11-13T19:51:14.292Z,4.18
2022-11-13T19:53:47.156Z,4.12
2022-11-13T19:56:14.847Z,4.03
2022-11-13T19:58:43.607Z,3.94
2022-11-13T20:01:11.151Z,3.88
2022-11-13T20:03:37.581Z,3.84
2022-11-13T20:06:04.189Z,3.81
2022-11-13T20:08:31.166Z,3.80
2022-11-13T20:11:05.804Z,3.77
2022-11-13T20:13:33.684Z,3.74
2022-11-13T20:15:59.522Z,3.69
2022-11-13T20:18:25.313Z,3.66
2022-11-13T20:20:54.627Z,3.65
2022-11-13T20:23:20.532Z,3.62
2022-11-13T20:26:00.714Z,3.57
2022-11-13T20:28:28.576Z,3.50
2022-11-13T20:31:05.687Z,3.45
2022-11-13T20:33:33.845Z,3.41
2022-11-13T20:36:00.481Z,3.36
2022-11-13T20:38:26.399Z,3.34
2022-11-13T20:40:52.206Z,3.32
2022-11-13T20:43:17.956Z,3.30
2022-11-13T20:45:43.633Z,3.29
2022-11-13T20:48:09.519Z,3.28
2022-11-13T20:50:35.985Z,3.24
2022-11-13T20:53:01.694Z,3.21
2022-11-13T20:55:27.454Z,3.17
2022-11-13T20:57:53.119Z,3.14
2022-11-13T21:00:18.809Z,3.11
2022-11-13T21:02:44.510Z,3.07
2022-11-13T21:05:10.212Z,3.00
2022-11-13T21:07:35.894Z,2.94
2022-11-13T21:10:01.740Z,2.90
2022-11-13T21:12:27.426Z,2.87
2022-11-13T21:14:53.100Z,2.86
2022-11-13T21:17:18.798Z,2.85
2022-11-13T21:19:44.748Z,2.84
2022-11-13T21:22:10.433Z,2.82
2022-11-13T21:24:37.298Z,2.81
2022-11-13T21:27:03.461Z,2.81
2022-11-13T21:29:29.235Z,2.79
2022-11-13T21:31:54.942Z,2.75
2022-11-13T21:34:20.652Z,2.71
2022-11-13T21:36:46.495Z,2.71
2022-11-13T21:39:12.175Z,2.73
2022-11-13T21:41:37.903Z,2.74
2022-11-13T21:44:05.550Z,2.72
2022-11-13T21:46:33.506Z,2.72
2022-11-13T21:49:01.709Z,2.69
2022-11-13T21:51:28.916Z,2.68
2022-11-13T21:53:55.456Z,2.66
2022-11-13T21:56:21.951Z,2.63
2022-11-13T21:58:47.690Z,2.61
2022-11-13T22:01:14.155Z,2.60
2022-11-13T22:03:40.279Z,2.60
2022-11-13T22:06:12.459Z,2.55
2022-11-13T22:08:38.638Z,2.46
2022-11-13T22:11:04.537Z,2.40
2022-11-13T22:13:30.717Z,2.35
2022-11-13T22:15:57.113Z,2.31
2022-11-13T22:18:23.176Z,2.29
2022-11-13T22:20:49.125Z,2.28
2022-11-13T22:23:15.425Z,2.28
2022-11-13T22:25:41.191Z,2.27
2022-11-13T22:28:07.171Z,2.24
2022-11-13T22:30:33.372Z,2.20
2022-11-13T22:32:59.332Z,2.16
2022-11-13T22:35:25.971Z,2.17
2022-11-13T22:37:51.738Z,2.14
2022-11-13T22:40:17.936Z,2.16
2022-11-13T22:42:43.652Z,2.17
2022-11-13T22:45:22.868Z,2.18
2022-11-13T22:47:49.855Z,2.17
2022-11-13T22:50:15.666Z,2.15
2022-11-13T22:52:41.361Z,2.13
2022-11-13T22:55:07.252Z,2.11
2022-11-13T22:57:33.107Z,2.10
2022-11-13T22:59:58.785Z,2.08
2022-11-13T23:02:24.569Z,2.06
2022-11-13T23:04:50.354Z,2.03
2022-11-13T23:07:16.124Z,1.98
2022-11-13T23:09:41.871Z,1.95
2022-11-13T23:12:08.779Z,1.92
2022-11-13T23:14:34.578Z,1.92
2022-11-13T23:17:00.296Z,1.88
2022-11-13T23:19:26.068Z,1.84
2022-11-13T23:21:51.727Z,1.84
2022-11-13T23:24:17.561Z,1.81
2022-11-13T23:26:43.253Z,1.79
2022-11-13T23:29:10.101Z,1.80
2022-11-13T23:31:35.829Z,1.79
2022-11-13T23:34:02.385Z,1.79
2022-11-13T23:36:29.761Z,1.81
2022-11-13T23:38:55.540Z,1.81
2022-11-13T23:41:21.324Z,1.83
2022-11-13T23:44:07.801Z,1.82
2022-11-13T23:46:32.995Z,1.81
2022-11-13T23:48:58.707Z,1.78
2022-11-13T23:51:24.381Z,1.77
2022-11-13T23:53:50.094Z,1.75
2022-11-13T23:56:15.900Z,1.73
2022-11-13T23:58:41.568Z,1.71
